Eland, WI (54427)

2:48 PM CDT on July 30, 2016 (GMT -0500)
Wittenberg Wi. | | Change Station

Elev 1191 ft 44.83 °N, 89.17 °W | Updated 13 seconds ago

Overcast
Overcast
76.8 °F
Feels Like 79 °F
N
2.7
Wind Variable Wind from ENE
Gusts 4.9 mph

Today
High -- | Low -- °F
--% Chance of Precip.
Yesterday
High -- | Low -- °F
Precip. -- in
Pressure 30.05 in
Visibility 10.0 miles
Clouds Scattered Clouds 4100 ft
Mostly Cloudy 5000 ft
Overcast 7000 ft
Heat Index 79 °F
Dew Point 61 °F
Humidity 58%
Rainfall 0.00 in
Snow Depth Not available.
5:41 AM 8:24 PM
Waning Crescent, 11% visible
METAR KAUW 301854Z AUTO 11007KT 10SM SCT041 BKN050 OVC070 23/14 A3005 RMK AO2 SLP176 T02330139
Pressure 30.05 in
Visibility 10.0 miles
Clouds Scattered Clouds 4100 ft
Mostly Cloudy 5000 ft
Overcast 7000 ft
Heat Index 79 °F
Dew Point 61 °F
Humidity 58%
Rainfall 0.00 in
Snow Depth Not available.
5:41 AM 8:24 PM
Waning Crescent, 11% visible
METAR KAUW 301854Z AUTO 11007KT 10SM SCT041 BKN050 OVC070 23/14 A3005 RMK AO2 SLP176 T02330139

10-Day Weather Forecast

Almanac

Astronomy

Jul. 30, 2016 Rise Set
Actual Time
Civil Twilight
Nautical Twilight
Astronomical Twilight
Moon
Length of Visible Light
Length of Day
Tomorrow will be .
, % of the Moon is Illuminated

Today's Extremes

State Highs State Lows

Community

WunderPhotos

Upload Photos

1,928,628 photos uploaded!

WunderBlog® & News

Nearby

Air Quality

  Air Quality AQ Index Pollutant
Not available.

Snow Depth

Station Depth Elevation

Earthquake Activity

City Distance Mag. Time & Date
Minimum magnitude displayed is 2.5.

Coastal Water Temperatures

Place Temperature

Stations

Nearby Weather Stations

Station Location Temp. Windchill Dew Point Humidity Wind Precip. Elev Updated Type
                   

Watches & Warnings

There are currently no watches in effect.